createdAt,value
2023-04-18T00:00:49.187Z,97870.44
2023-04-18T00:01:52.579Z,97867.34
2023-04-18T00:02:56.354Z,97872.47
2023-04-18T00:03:59.517Z,97870.91
2023-04-18T00:05:02.567Z,97877.72
2023-04-18T00:06:06.076Z,97869.81
2023-04-18T00:07:09.295Z,97877.00
2023-04-18T00:08:12.361Z,97869.81
2023-04-18T00:09:15.152Z,97869.34
2023-04-18T00:10:17.977Z,97867.16
2023-04-18T00:11:20.914Z,97869.91
2023-04-18T00:12:23.648Z,97876.03
2023-04-18T00:13:28.682Z,97868.22
2023-04-18T00:14:31.362Z,97871.84
2023-04-18T00:15:37.291Z,97867.16
2023-04-18T00:16:40.274Z,97859.41
2023-04-18T00:17:43.664Z,97866.19
2023-04-18T00:18:46.406Z,97869.09
2023-04-18T00:19:49.984Z,97867.41
2023-04-18T00:20:54.808Z,97869.28
2023-04-18T00:21:58.245Z,97867.59
2023-04-18T00:23:01.997Z,97872.88
2023-04-18T00:24:05.290Z,97865.94
2023-04-18T00:25:09.087Z,97868.56
2023-04-18T00:26:12.303Z,97870.84
2023-04-18T00:27:15.109Z,97869.28
2023-04-18T00:28:18.136Z,97875.47
2023-04-18T00:29:20.872Z,97875.37
2023-04-18T00:30:23.643Z,97876.69
2023-04-18T00:31:26.409Z,97870.69
2023-04-18T00:32:29.324Z,97877.53
2023-04-18T00:33:32.106Z,97867.94
2023-04-18T00:34:35.157Z,97874.78
2023-04-18T00:35:38.666Z,97872.63
2023-04-18T00:36:41.687Z,97876.09
2023-04-18T00:37:44.599Z,97877.53
2023-04-18T00:38:47.364Z,97867.47
2023-04-18T00:39:53.980Z,97872.84
2023-04-18T00:40:56.767Z,97871.31
2023-04-18T00:41:59.654Z,97871.91
2023-04-18T00:43:02.822Z,97874.66
2023-04-18T00:44:05.815Z,97870.25
2023-04-18T00:45:09.066Z,97874.56
2023-04-18T00:46:11.855Z,97873.72
2023-04-18T00:47:17.665Z,97875.84
2023-04-18T00:48:21.158Z,97873.38
2023-04-18T00:49:24.572Z,97872.38
2023-04-18T00:50:27.713Z,97868.47
2023-04-18T00:51:30.718Z,97878.03
2023-04-18T00:52:36.071Z,97871.94
2023-04-18T00:53:39.447Z,97870.97
2023-04-18T00:54:44.488Z,97875.28
2023-04-18T00:55:47.793Z,97872.03
2023-04-18T00:56:51.622Z,97868.84
2023-04-18T00:57:54.352Z,97878.41
2023-04-18T00:58:57.285Z,97875.50
2023-04-18T01:00:01.469Z,97874.06
2023-04-18T01:01:05.894Z,97870.50
2023-04-18T01:02:08.697Z,97874.22
2023-04-18T01:03:14.777Z,97878.41
2023-04-18T01:04:17.918Z,97871.69
2023-04-18T01:05:21.545Z,97873.97
2023-04-18T01:06:25.493Z,97874.06
2023-04-18T01:07:30.862Z,97875.31
2023-04-18T01:08:33.740Z,97870.62
2023-04-18T01:09:37.216Z,97873.87
2023-04-18T01:10:40.079Z,97870.97
2023-04-18T01:11:42.875Z,97877.19
2023-04-18T01:12:45.685Z,97869.34
2023-04-18T01:14:02.508Z,97879.50
2023-04-18T01:15:05.928Z,97877.00
2023-04-18T01:16:08.771Z,97878.69
2023-04-18T01:17:13.596Z,97877.81
2023-04-18T01:18:17.390Z,97883.81
2023-04-18T01:19:20.936Z,97875.44
2023-04-18T01:20:26.455Z,97876.28
2023-04-18T01:21:34.187Z,97882.84
2023-04-18T01:22:36.943Z,97873.53
2023-04-18T01:23:39.774Z,97876.38
2023-04-18T01:24:42.478Z,97877.09
2023-04-18T01:25:47.658Z,97878.66
2023-04-18T01:26:50.790Z,97874.94
2023-04-18T01:27:54.555Z,97875.78
2023-04-18T01:28:57.216Z,97875.78
2023-04-18T01:30:00.227Z,97871.59
2023-04-18T01:31:02.972Z,97881.78
2023-04-18T01:32:07.075Z,97872.44
2023-04-18T01:33:09.741Z,97875.28
2023-04-18T01:34:12.622Z,97876.38
2023-04-18T01:35:15.634Z,97877.53
2023-04-18T01:36:18.305Z,97876.47
2023-04-18T01:37:21.095Z,97878.84
2023-04-18T01:38:23.899Z,97874.31
2023-04-18T01:39:26.672Z,97881.28
2023-04-18T01:40:30.413Z,97882.47
2023-04-18T01:41:33.264Z,97881.84
2023-04-18T01:42:35.997Z,97875.97
2023-04-18T01:43:38.741Z,97882.19
2023-04-18T01:44:41.561Z,97878.22
2023-04-18T01:45:44.233Z,97873.38
2023-04-18T01:46:47.258Z,97879.94
2023-04-18T01:47:50.254Z,97876.63
2023-04-18T01:48:53.386Z,97873.50
2023-04-18T01:49:56.319Z,97882.81
2023-04-18T01:50:59.131Z,97879.47
2023-04-18T01:52:02.096Z,97874.06
2023-04-18T01:53:04.861Z,97879.72
2023-04-18T01:54:07.738Z,97872.22
2023-04-18T01:55:10.695Z,97877.34
2023-04-18T01:56:13.514Z,97874.78
2023-04-18T01:57:16.182Z,97875.84
2023-04-18T01:58:23.260Z,97874.56
2023-04-18T01:59:26.008Z,97877.19
2023-04-18T02:00:29.094Z,97875.50
2023-04-18T02:01:31.807Z,97875.78
2023-04-18T02:02:34.976Z,97877.81
2023-04-18T02:03:37.954Z,97873.66
2023-04-18T02:04:41.077Z,97882.13
2023-04-18T02:05:43.783Z,97876.97
2023-04-18T02:06:46.501Z,97880.09
2023-04-18T02:07:50.455Z,97882.25
2023-04-18T02:08:53.255Z,97879.50
2023-04-18T02:09:56.235Z,97879.00
2023-04-18T02:10:59.854Z,97878.41
2023-04-18T02:12:03.477Z,97882.34
2023-04-18T02:13:06.949Z,97878.53
2023-04-18T02:14:12.498Z,97875.28
2023-04-18T02:15:15.404Z,97879.47
2023-04-18T02:16:18.289Z,97886.66
2023-04-18T02:17:23.664Z,97883.94
2023-04-18T02:18:27.357Z,97883.94
2023-04-18T02:19:30.538Z,97881.53
2023-04-18T02:20:33.855Z,97881.87
2023-04-18T02:21:37.105Z,97884.16
2023-04-18T02:22:39.867Z,97882.47
2023-04-18T02:23:42.530Z,97882.84
2023-04-18T02:24:45.555Z,97887.13
2023-04-18T02:25:48.291Z,97886.03
2023-04-18T02:26:51.196Z,97879.84
2023-04-18T02:27:54.723Z,97886.66
2023-04-18T02:28:58.890Z,97879.22
2023-04-18T02:30:01.707Z,97883.28
2023-04-18T02:31:04.902Z,97882.81
2023-04-18T02:32:08.446Z,97882.56
2023-04-18T02:33:11.217Z,97885.09
2023-04-18T02:34:14.064Z,97885.59
2023-04-18T02:35:16.908Z,97879.00
2023-04-18T02:36:19.821Z,97885.44
2023-04-18T02:37:22.584Z,97879.59
2023-04-18T02:38:25.333Z,97882.34
2023-04-18T02:39:28.119Z,97885.59
2023-04-18T02:40:30.977Z,97888.00
2023-04-18T02:41:35.068Z,97880.56
2023-04-18T02:42:37.735Z,97889.41
2023-04-18T02:43:40.485Z,97880.81
2023-04-18T02:44:43.314Z,97883.09
2023-04-18T02:45:46.065Z,97890.13
2023-04-18T02:46:48.809Z,97888.22
2023-04-18T02:47:55.624Z,97889.53
2023-04-18T02:48:59.714Z,97898.75
2023-04-18T02:50:06.608Z,97884.38
2023-04-18T02:51:09.586Z,97885.25
2023-04-18T02:52:12.364Z,97890.72
2023-04-18T02:53:15.735Z,97887.34
2023-04-18T02:54:18.699Z,97885.91
2023-04-18T02:55:22.383Z,97887.19
2023-04-18T02:56:25.181Z,97888.88
2023-04-18T02:57:27.968Z,97893.09
2023-04-18T02:58:30.864Z,97879.56
2023-04-18T02:59:33.777Z,97896.78
2023-04-18T03:00:36.935Z,97891.56
2023-04-18T03:01:39.917Z,97887.84
2023-04-18T03:02:42.824Z,97889.22
2023-04-18T03:03:45.747Z,97886.97
2023-04-18T03:04:48.481Z,97894.03
2023-04-18T03:05:51.426Z,97894.84
2023-04-18T03:06:54.073Z,97886.72
2023-04-18T03:07:56.779Z,97899.28
2023-04-18T03:08:59.657Z,97897.16
2023-04-18T03:10:03.577Z,97896.66
2023-04-18T03:11:06.462Z,97896.78
2023-04-18T03:12:09.318Z,97902.66
2023-04-18T03:13:12.020Z,97901.09
2023-04-18T03:14:15.038Z,97895.66
2023-04-18T03:15:17.966Z,97901.19
2023-04-18T03:16:21.086Z,97897.06
2023-04-18T03:17:24.081Z,97907.22
2023-04-18T03:18:27.130Z,97908.66
2023-04-18T03:19:29.916Z,97901.12
2023-04-18T03:20:33.265Z,97902.44
2023-04-18T03:21:36.341Z,97909.12
2023-04-18T03:22:39.608Z,97898.97
2023-04-18T03:23:42.372Z,97902.81
2023-04-18T03:24:45.304Z,97910.28
2023-04-18T03:25:48.150Z,97902.09
2023-04-18T03:26:50.888Z,97910.56
2023-04-18T03:27:53.973Z,97903.50
2023-04-18T03:28:56.760Z,97910.88
2023-04-18T03:29:59.416Z,97899.88
2023-04-18T03:31:02.174Z,97906.19
2023-04-18T03:32:05.262Z,97911.44
2023-04-18T03:33:09.038Z,97907.03
2023-04-18T03:34:12.321Z,97906.66
2023-04-18T03:35:15.886Z,97909.00
2023-04-18T03:36:18.689Z,97909.22
2023-04-18T03:37:21.532Z,97909.78
2023-04-18T03:38:24.452Z,97913.25
2023-04-18T03:39:27.077Z,97909.59
2023-04-18T03:40:29.916Z,97916.25
2023-04-18T03:41:32.571Z,97906.78
2023-04-18T03:42:35.669Z,97908.28
2023-04-18T03:43:38.394Z,97913.78
2023-04-18T03:44:41.053Z,97910.66
2023-04-18T03:45:44.438Z,97908.34
2023-04-18T03:46:47.364Z,97910.81
2023-04-18T03:47:50.156Z,97907.84
2023-04-18T03:48:53.395Z,97911.03
2023-04-18T03:49:56.072Z,97906.97
2023-04-18T03:50:58.959Z,97916.06
2023-04-18T03:52:01.685Z,97912.78
2023-04-18T03:53:04.533Z,97907.56
2023-04-18T03:54:07.171Z,97914.81
2023-04-18T03:55:10.090Z,97911.41
2023-04-18T03:56:12.886Z,97913.78
2023-04-18T03:57:15.816Z,97916.47
2023-04-18T03:58:23.735Z,97915.53
2023-04-18T03:59:27.302Z,97912.78
2023-04-18T04:00:30.508Z,97910.75
2023-04-18T04:01:33.989Z,97915.88
2023-04-18T04:02:37.087Z,97911.56
2023-04-18T04:03:40.249Z,97912.66
2023-04-18T04:04:43.340Z,97920.31
2023-04-18T04:05:46.355Z,97911.47
2023-04-18T04:06:49.070Z,97915.72
2023-04-18T04:07:52.067Z,97916.50
2023-04-18T04:08:55.013Z,97923.38
2023-04-18T04:10:00.811Z,97916.84
2023-04-18T04:11:03.636Z,97916.56
2023-04-18T04:12:06.648Z,97918.91
2023-04-18T04:13:09.433Z,97921.53
2023-04-18T04:14:12.421Z,97921.94
2023-04-18T04:15:15.382Z,97925.34
2023-04-18T04:16:18.378Z,97926.28
2023-04-18T04:17:21.578Z,97924.56
2023-04-18T04:18:31.138Z,97928.03
2023-04-18T04:19:33.976Z,97932.94
2023-04-18T04:20:36.716Z,97921.50
2023-04-18T04:21:39.356Z,97924.56
2023-04-18T04:22:42.860Z,97926.00
2023-04-18T04:23:46.459Z,97926.53
2023-04-18T04:24:49.194Z,97919.91
2023-04-18T04:25:53.302Z,97925.53
2023-04-18T04:26:56.537Z,97926.44
2023-04-18T04:28:01.885Z,97922.38
2023-04-18T04:29:05.266Z,97920.66
2023-04-18T04:30:10.276Z,97930.06
2023-04-18T04:31:14.138Z,97921.94
2023-04-18T04:32:17.095Z,97925.28
2023-04-18T04:33:20.762Z,97925.72
2023-04-18T04:34:23.562Z,97922.97
2023-04-18T04:35:26.952Z,97923.84
2023-04-18T04:36:29.681Z,97928.03
2023-04-18T04:37:33.705Z,97932.97
2023-04-18T04:38:38.670Z,97929.09
2023-04-18T04:39:41.578Z,97932.28
2023-04-18T04:40:44.400Z,97927.63
2023-04-18T04:41:47.621Z,97925.00
2023-04-18T04:42:54.212Z,97930.38
2023-04-18T04:43:57.121Z,97935.00
2023-04-18T04:44:59.864Z,97935.00
2023-04-18T04:46:05.665Z,97935.00
2023-04-18T04:47:08.810Z,97936.75
2023-04-18T04:48:11.589Z,97932.88
2023-04-18T04:49:14.481Z,97938.19
2023-04-18T04:50:19.848Z,97930.00
2023-04-18T04:51:22.818Z,97928.97
2023-04-18T04:52:26.106Z,97939.19
2023-04-18T04:53:32.949Z,97931.12
2023-04-18T04:54:35.666Z,97938.78
2023-04-18T04:55:39.015Z,97940.63
2023-04-18T04:56:41.694Z,97938.19
2023-04-18T04:57:45.118Z,97938.94
2023-04-18T04:58:47.805Z,97936.19
2023-04-18T04:59:50.804Z,97935.72
2023-04-18T05:00:54.024Z,97946.28
2023-04-18T05:01:58.580Z,97940.94
2023-04-18T05:03:02.486Z,97938.66
2023-04-18T05:04:06.202Z,97947.41
2023-04-18T05:05:09.102Z,97947.81
2023-04-18T05:06:12.447Z,97945.97
2023-04-18T05:07:15.823Z,97942.78
2023-04-18T05:08:18.615Z,97938.50
2023-04-18T05:09:21.359Z,97946.88
2023-04-18T05:10:24.259Z,97945.56
2023-04-18T05:11:27.133Z,97943.28
2023-04-18T05:12:30.096Z,97942.84
2023-04-18T05:13:32.893Z,97942.31
2023-04-18T05:14:35.766Z,97938.09
2023-04-18T05:15:39.577Z,97945.63
2023-04-18T05:16:42.324Z,97944.28
2023-04-18T05:17:45.419Z,97947.00
2023-04-18T05:18:48.599Z,97950.94
2023-04-18T05:19:52.648Z,97952.38
2023-04-18T05:20:56.056Z,97951.06
2023-04-18T05:21:58.796Z,97957.47
2023-04-18T05:23:01.700Z,97953.28
2023-04-18T05:24:04.481Z,97952.50
2023-04-18T05:25:08.112Z,97957.41
2023-04-18T05:26:11.046Z,97959.31
2023-04-18T05:27:18.201Z,97952.22
2023-04-18T05:28:25.793Z,97954.53
2023-04-18T05:29:28.823Z,97958.59
2023-04-18T05:30:31.638Z,97953.50
2023-04-18T05:31:38.915Z,97959.72
2023-04-18T05:32:41.855Z,97965.53
2023-04-18T05:33:44.784Z,97959.13
2023-04-18T05:34:49.131Z,97957.87
2023-04-18T05:35:51.849Z,97964.38
2023-04-18T05:36:54.788Z,97953.31
2023-04-18T05:37:58.498Z,97962.69
2023-04-18T05:39:01.242Z,97955.19
2023-04-18T05:40:05.279Z,97965.03
2023-04-18T05:41:08.072Z,97963.00
2023-04-18T05:42:10.958Z,97970.66
2023-04-18T05:43:13.756Z,97967.47
2023-04-18T05:44:17.605Z,97973.81
2023-04-18T05:45:20.557Z,97965.37
2023-04-18T05:46:26.218Z,97971.75
2023-04-18T05:47:30.520Z,97969.59
2023-04-18T05:48:33.242Z,97972.34
2023-04-18T05:49:36.096Z,97969.44
2023-04-18T05:50:39.151Z,97970.75
2023-04-18T05:51:41.977Z,97975.72
2023-04-18T05:52:44.721Z,97973.97
2023-04-18T05:53:47.438Z,97975.94
2023-04-18T05:54:50.059Z,97978.09
2023-04-18T05:55:52.881Z,97974.75
2023-04-18T05:56:57.188Z,97976.94
2023-04-18T05:57:59.952Z,97981.06
2023-04-18T05:59:02.658Z,97968.16
2023-04-18T06:00:12.060Z,97976.53
2023-04-18T06:01:14.754Z,97970.56
2023-04-18T06:02:18.138Z,97979.09
2023-04-18T06:03:21.030Z,97980.19
2023-04-18T06:04:24.140Z,97983.56
2023-04-18T06:05:27.501Z,97980.91
2023-04-18T06:06:31.639Z,97989.75
2023-04-18T06:07:34.739Z,97982.34
2023-04-18T06:08:40.015Z,97984.81
2023-04-18T06:09:42.780Z,97983.97
2023-04-18T06:10:45.512Z,97995.81
2023-04-18T06:11:48.505Z,97984.62
2023-04-18T06:12:53.960Z,97984.25
2023-04-18T06:13:56.666Z,97993.22
2023-04-18T06:14:59.532Z,97993.66
2023-04-18T06:16:02.486Z,97989.41
2023-04-18T06:17:07.427Z,97991.22
2023-04-18T06:18:10.082Z,97995.78
2023-04-18T06:19:12.814Z,97993.75
2023-04-18T06:20:15.580Z,98000.84
2023-04-18T06:21:18.401Z,97999.91
2023-04-18T06:22:21.318Z,97998.22
2023-04-18T06:23:23.995Z,97998.47
2023-04-18T06:24:26.714Z,97995.47
2023-04-18T06:25:29.602Z,97991.19
2023-04-18T06:26:32.805Z,97998.84
2023-04-18T06:27:36.139Z,97996.44
2023-04-18T06:28:38.903Z,97998.34
2023-04-18T06:29:41.625Z,97999.91
2023-04-18T06:30:44.383Z,97996.56
2023-04-18T06:31:48.548Z,98000.09
2023-04-18T06:32:51.280Z,97998.44
2023-04-18T06:33:54.063Z,97996.66
2023-04-18T06:34:56.765Z,97998.69
2023-04-18T06:35:59.681Z,97992.69
2023-04-18T06:37:02.647Z,97997.13
2023-04-18T06:38:05.432Z,97998.94
2023-04-18T06:39:08.415Z,97999.41
2023-04-18T06:40:12.324Z,97995.09
2023-04-18T06:41:15.742Z,97996.69
2023-04-18T06:42:21.591Z,97998.94
2023-04-18T06:43:25.070Z,98000.41
2023-04-18T06:44:27.763Z,97998.22
2023-04-18T06:45:31.691Z,97999.34
2023-04-18T06:46:34.645Z,98002.91
2023-04-18T06:47:37.892Z,98000.06
2023-04-18T06:48:40.900Z,98007.59
2023-04-18T06:49:43.712Z,98003.41
2023-04-18T06:50:46.908Z,98002.81
2023-04-18T06:51:49.554Z,97998.38
2023-04-18T06:52:52.322Z,97999.22
2023-04-18T06:53:55.036Z,98011.91
2023-04-18T06:54:59.862Z,98002.09
2023-04-18T06:56:02.601Z,98005.22
2023-04-18T06:57:05.658Z,98005.22
2023-04-18T06:58:09.854Z,98006.91
2023-04-18T06:59:12.821Z,98002.81
2023-04-18T07:00:15.996Z,98011.31
2023-04-18T07:01:19.856Z,98002.22
2023-04-18T07:02:22.837Z,98014.66
2023-04-18T07:03:26.215Z,98010.72
2023-04-18T07:04:29.263Z,98006.78
2023-04-18T07:05:32.024Z,98004.25
2023-04-18T07:06:36.440Z,98006.31
2023-04-18T07:07:39.440Z,98008.69
2023-04-18T07:08:42.356Z,98018.28
2023-04-18T07:09:45.224Z,98010.00
2023-04-18T07:10:48.054Z,98011.81
2023-04-18T07:11:53.444Z,98014.44
2023-04-18T07:12:57.232Z,98011.69
2023-04-18T07:14:00.096Z,98016.12
2023-04-18T07:15:04.133Z,98012.03
2023-04-18T07:16:07.388Z,98016.72
2023-04-18T07:17:10.259Z,98012.63
2023-04-18T07:18:16.109Z,98012.13
2023-04-18T07:19:23.663Z,98010.19
2023-04-18T07:20:26.605Z,98011.87
2023-04-18T07:21:29.407Z,98009.34
2023-04-18T07:22:32.101Z,98011.72
2023-04-18T07:23:35.753Z,98011.69
2023-04-18T07:24:39.578Z,98010.59
2023-04-18T07:25:42.268Z,98008.94
2023-04-18T07:26:45.042Z,98015.06
2023-04-18T07:27:48.147Z,98018.87
2023-04-18T07:28:50.902Z,98011.87
2023-04-18T07:29:53.647Z,98016.78
2023-04-18T07:30:57.128Z,98017.81
2023-04-18T07:32:00.180Z,98021.91
2023-04-18T07:33:03.225Z,98022.62
2023-04-18T07:34:06.371Z,98019.25
2023-04-18T07:35:09.562Z,98021.63
2023-04-18T07:36:12.674Z,98025.63
2023-04-18T07:37:17.131Z,98019.37
2023-04-18T07:38:19.947Z,98029.44
2023-04-18T07:39:22.856Z,98030.84
2023-04-18T07:40:25.509Z,98027.59
2023-04-18T07:41:28.267Z,98036.38
2023-04-18T07:42:30.932Z,98032.28
2023-04-18T07:43:33.647Z,98035.78
2023-04-18T07:44:36.807Z,98034.19
2023-04-18T07:45:39.675Z,98031.88
2023-04-18T07:46:42.504Z,98030.03
2023-04-18T07:47:45.531Z,98033.53
2023-04-18T07:48:48.662Z,98037.09
2023-04-18T07:49:51.571Z,98033.87
2023-04-18T07:50:54.510Z,98031.91
2023-04-18T07:51:57.174Z,98043.19
2023-04-18T07:52:59.932Z,98040.75
2023-04-18T07:54:03.169Z,98034.13
2023-04-18T07:55:06.381Z,98041.28
2023-04-18T07:56:09.751Z,98041.28
2023-04-18T07:57:12.694Z,98043.72
2023-04-18T07:58:16.902Z,98040.16
2023-04-18T07:59:19.791Z,98041.41
2023-04-18T08:00:22.513Z,98041.31
2023-04-18T08:01:27.356Z,98043.34
2023-04-18T08:02:30.055Z,98039.66
2023-04-18T08:03:35.329Z,98044.19
2023-04-18T08:04:38.260Z,98048.16
2023-04-18T08:05:42.423Z,98042.84
2023-04-18T08:06:45.126Z,98045.62
2023-04-18T08:07:47.907Z,98044.19
2023-04-18T08:08:50.650Z,98044.75
2023-04-18T08:09:53.749Z,98050.25
2023-04-18T08:10:56.444Z,98038.88
2023-04-18T08:11:59.532Z,98046.66
2023-04-18T08:13:02.599Z,98050.13
2023-04-18T08:14:05.685Z,98049.00
2023-04-18T08:15:09.230Z,98052.00
2023-04-18T08:16:12.832Z,98048.44
2023-04-18T08:17:16.574Z,98054.38
2023-04-18T08:18:20.810Z,98057.87
2023-04-18T08:19:24.441Z,98060.09
2023-04-18T08:20:27.290Z,98064.28
2023-04-18T08:21:30.130Z,98062.56
2023-04-18T08:22:33.972Z,98057.87
2023-04-18T08:23:36.658Z,98062.34
2023-04-18T08:24:39.674Z,98061.84
2023-04-18T08:25:42.413Z,98060.13
2023-04-18T08:26:45.524Z,98057.59
2023-04-18T08:27:48.275Z,98062.84
2023-04-18T08:28:51.364Z,98059.59
2023-04-18T08:29:54.522Z,98060.25
2023-04-18T08:30:57.316Z,98062.63
2023-04-18T08:32:00.929Z,98060.34
2023-04-18T08:33:03.847Z,98057.91
2023-04-18T08:34:06.712Z,98066.19
2023-04-18T08:35:09.606Z,98056.28
2023-04-18T08:36:12.515Z,98063.56
2023-04-18T08:37:15.200Z,98072.28
2023-04-18T08:38:19.142Z,98063.78
2023-04-18T08:39:23.141Z,98074.13
2023-04-18T08:40:27.096Z,98063.78
2023-04-18T08:41:35.016Z,98068.06
2023-04-18T08:42:38.789Z,98070.66
2023-04-18T08:43:41.522Z,98070.03
2023-04-18T08:44:45.283Z,98062.97
2023-04-18T08:45:48.483Z,98073.72
2023-04-18T08:46:52.946Z,98064.63
2023-04-18T08:47:58.029Z,98072.78
2023-04-18T08:49:00.876Z,98072.28
2023-04-18T08:50:04.174Z,98067.88
2023-04-18T08:51:07.127Z,98079.78
2023-04-18T08:52:19.723Z,98075.78
2023-04-18T08:53:22.277Z,98068.91
2023-04-18T08:54:27.338Z,98068.69
2023-04-18T08:55:30.570Z,98075.78
2023-04-18T08:56:33.621Z,98069.72
2023-04-18T08:57:36.557Z,98072.06
2023-04-18T08:58:39.242Z,98071.34
2023-04-18T08:59:46.357Z,98073.19
2023-04-18T09:00:52.394Z,98073.19
2023-04-18T09:01:57.208Z,98072.47
2023-04-18T09:03:00.375Z,98066.63
2023-04-18T09:04:03.054Z,98076.25
2023-04-18T09:05:19.187Z,98079.22
2023-04-18T09:06:22.212Z,98078.78
2023-04-18T09:07:29.096Z,98074.88
2023-04-18T09:08:31.917Z,98079.97
2023-04-18T09:09:49.351Z,98071.88
2023-04-18T09:10:52.966Z,98073.94
2023-04-18T09:12:09.163Z,98075.34
2023-04-18T09:13:12.677Z,98075.50
2023-04-18T09:14:26.175Z,98078.50
2023-04-18T09:15:29.550Z,98076.25
2023-04-18T09:16:50.738Z,98072.78
2023-04-18T09:17:56.592Z,98075.63
2023-04-18T09:19:13.606Z,98068.66
2023-04-18T09:20:43.918Z,98072.47
2023-04-18T09:21:47.413Z,98072.16
2023-04-18T09:22:52.416Z,98088.97
2023-04-18T09:24:21.358Z,98086.31
2023-04-18T09:25:27.684Z,98075.09
2023-04-18T09:26:36.259Z,98073.88
2023-04-18T09:27:39.317Z,98086.38
2023-04-18T09:28:42.414Z,98079.41
2023-04-18T09:29:47.510Z,98087.59
2023-04-18T09:30:54.573Z,98076.34
2023-04-18T09:32:01.444Z,98080.56
2023-04-18T09:33:07.767Z,98086.28
2023-04-18T09:34:25.186Z,98084.22
2023-04-18T09:35:28.410Z,98085.38
2023-04-18T09:36:32.647Z,98081.59
2023-04-18T09:37:35.494Z,98082.19
2023-04-18T09:38:41.713Z,98078.00
2023-04-18T09:39:44.968Z,98086.91
2023-04-18T09:41:09.273Z,98083.13
2023-04-18T09:42:15.392Z,98083.00
2023-04-18T09:43:20.016Z,98086.31
2023-04-18T09:44:22.763Z,98086.50
2023-04-18T09:45:26.204Z,98077.06
2023-04-18T09:46:29.398Z,98081.88
2023-04-18T09:47:35.369Z,98075.81
2023-04-18T09:48:39.913Z,98079.78
2023-04-18T09:49:42.798Z,98068.13
2023-04-18T09:50:47.394Z,98072.37
2023-04-18T09:51:54.948Z,98092.72
2023-04-18T09:52:58.584Z,98079.13
2023-04-18T09:54:04.671Z,98080.37
2023-04-18T09:55:09.834Z,98075.63
2023-04-18T09:56:20.004Z,98083.03
2023-04-18T09:57:29.535Z,98077.41
2023-04-18T09:58:33.326Z,98082.25
2023-04-18T09:59:52.141Z,98075.88
2023-04-18T10:00:57.120Z,98079.56
2023-04-18T10:02:00.195Z,98073.28
2023-04-18T10:03:10.805Z,98076.00
2023-04-18T10:04:17.047Z,98081.37
2023-04-18T10:05:22.761Z,98072.50
2023-04-18T10:06:27.634Z,98077.81
2023-04-18T10:07:31.918Z,98075.47
2023-04-18T10:08:35.113Z,98080.00
2023-04-18T10:09:39.844Z,98079.41
2023-04-18T10:10:43.684Z,98077.53
2023-04-18T10:11:46.825Z,98077.88
2023-04-18T10:12:52.074Z,98086.22
2023-04-18T10:14:03.105Z,98083.44
2023-04-18T10:15:07.312Z,98082.66
2023-04-18T10:16:11.322Z,98074.13
2023-04-18T10:17:15.511Z,98080.84
2023-04-18T10:18:24.058Z,98073.63
2023-04-18T10:19:28.532Z,98081.75
2023-04-18T10:20:33.511Z,98079.94
2023-04-18T10:21:36.311Z,98083.50
2023-04-18T10:22:38.955Z,98072.94
2023-04-18T10:23:41.663Z,98075.19
2023-04-18T10:24:50.027Z,98081.37
2023-04-18T10:25:53.000Z,98076.81
2023-04-18T10:26:56.170Z,98082.81
2023-04-18T10:28:03.145Z,98077.81
2023-04-18T10:29:05.898Z,98074.59
2023-04-18T10:30:09.353Z,98070.22
2023-04-18T10:31:12.563Z,98076.84
2023-04-18T10:32:15.843Z,98077.81
2023-04-18T10:33:34.047Z,98082.91
2023-04-18T10:34:38.002Z,98080.41
2023-04-18T10:36:17.325Z,98080.03
2023-04-18T10:37:20.450Z,98074.38
2023-04-18T10:38:24.371Z,98074.38
2023-04-18T10:39:28.705Z,98074.94
2023-04-18T10:40:35.155Z,98076.53
2023-04-18T10:41:50.623Z,98081.03
2023-04-18T10:42:54.158Z,98079.63
2023-04-18T10:44:14.758Z,98085.44
2023-04-18T10:45:22.527Z,98080.56
2023-04-18T10:46:32.328Z,98081.25
2023-04-18T10:47:36.096Z,98078.94
2023-04-18T10:48:39.420Z,98078.56
2023-04-18T10:49:54.174Z,98069.25
2023-04-18T10:51:17.122Z,98069.16
2023-04-18T10:52:20.153Z,98067.13
2023-04-18T10:53:22.971Z,98074.56
2023-04-18T10:54:51.085Z,98076.25
2023-04-18T10:55:55.756Z,98076.72
2023-04-18T10:57:00.028Z,98074.38
2023-04-18T10:58:03.590Z,98070.09
2023-04-18T10:59:09.485Z,98061.06
2023-04-18T11:00:16.275Z,98059.72
2023-04-18T11:01:32.641Z,98063.69
2023-04-18T11:02:37.253Z,98066.97
2023-04-18T11:03:40.201Z,98060.97
2023-04-18T11:04:42.884Z,98062.06
2023-04-18T11:05:45.797Z,98059.53
2023-04-18T11:06:57.658Z,98064.91
2023-04-18T11:08:00.382Z,98064.56
2023-04-18T11:09:11.960Z,98062.50
2023-04-18T11:10:17.513Z,98059.88
2023-04-18T11:11:20.117Z,98065.44
2023-04-18T11:12:23.216Z,98061.88
2023-04-18T11:13:27.442Z,98064.91
2023-04-18T11:14:43.148Z,98064.72
2023-04-18T11:15:45.840Z,98064.97
2023-04-18T11:16:48.634Z,98070.38
2023-04-18T11:18:00.266Z,98060.75
2023-04-18T11:19:19.722Z,98067.53
2023-04-18T11:20:22.579Z,98073.25
2023-04-18T11:21:30.606Z,98063.56
2023-04-18T11:22:33.912Z,98075.41
2023-04-18T11:23:36.684Z,98069.97
2023-04-18T11:24:39.524Z,98073.66
2023-04-18T11:25:44.988Z,98062.31
2023-04-18T11:26:47.793Z,98075.22
2023-04-18T11:27:55.833Z,98078.44
2023-04-18T11:28:58.810Z,98082.16
2023-04-18T11:30:01.796Z,98083.88
2023-04-18T11:31:04.600Z,98075.28
2023-04-18T11:32:08.437Z,98079.22
2023-04-18T11:33:12.603Z,98081.56
2023-04-18T11:34:15.711Z,98088.41
2023-04-18T11:35:18.981Z,98078.16
2023-04-18T11:36:21.697Z,98078.59
2023-04-18T11:37:25.059Z,98076.53
2023-04-18T11:38:30.959Z,98077.69
2023-04-18T11:39:43.116Z,98076.53
2023-04-18T11:40:50.106Z,98076.28
2023-04-18T11:41:53.262Z,98071.53
2023-04-18T11:42:56.139Z,98069.72
2023-04-18T11:43:58.812Z,98071.53
2023-04-18T11:45:02.330Z,98075.56
2023-04-18T11:46:05.454Z,98066.78
2023-04-18T11:47:31.915Z,98065.34
2023-04-18T11:48:36.471Z,98060.62
2023-04-18T11:49:39.114Z,98066.88
2023-04-18T11:50:41.877Z,98067.59
2023-04-18T11:51:46.633Z,98069.38
2023-04-18T11:52:53.815Z,98065.72
2023-04-18T11:53:56.931Z,98071.25
2023-04-18T11:55:27.374Z,98071.97
2023-04-18T11:56:30.309Z,98067.25
2023-04-18T11:57:33.362Z,98071.25
2023-04-18T11:58:37.004Z,98077.88
2023-04-18T11:59:39.736Z,98072.34
2023-04-18T12:00:42.499Z,98076.53
2023-04-18T12:01:45.746Z,98072.84
2023-04-18T12:02:51.014Z,98069.09
2023-04-18T12:04:05.351Z,98065.41
2023-04-18T12:05:09.025Z,98064.91
2023-04-18T12:06:12.343Z,98062.12
2023-04-18T12:07:30.925Z,98059.00
2023-04-18T12:08:33.577Z,98059.81
2023-04-18T12:09:39.344Z,98064.00
2023-04-18T12:10:53.155Z,98066.78
2023-04-18T12:12:03.072Z,98063.38
2023-04-18T12:13:09.081Z,98068.84
2023-04-18T12:14:24.159Z,98065.34
2023-04-18T12:15:29.126Z,98059.09
2023-04-18T12:16:33.669Z,98063.91
2023-04-18T12:17:37.852Z,98067.25
2023-04-18T12:18:45.145Z,98070.63
2023-04-18T12:19:49.767Z,98067.13
2023-04-18T12:20:56.882Z,98069.12
2023-04-18T12:22:01.456Z,98074.75
2023-04-18T12:23:04.404Z,98064.63
2023-04-18T12:24:15.920Z,98062.91
2023-04-18T12:25:28.546Z,98066.31
2023-04-18T12:26:31.567Z,98064.47
2023-04-18T12:27:56.035Z,98060.16
2023-04-18T12:29:01.025Z,98063.91
2023-04-18T12:30:04.203Z,98069.56
2023-04-18T12:31:08.893Z,98063.56
2023-04-18T12:32:11.772Z,98065.78
2023-04-18T12:33:14.442Z,98062.84
2023-04-18T12:34:17.217Z,98065.91
2023-04-18T12:35:22.577Z,98064.94
2023-04-18T12:36:26.846Z,98061.81